Time;durP1;ratioP1;P1;durP2;ratioP2;P2;SDS_P1;SDS_P2;PMS_P1;PMS_P2;Temp;Humidity;BMP_temperature;BMP_pressure;BME280_temperature;BME280_humidity;BME280_pressure;Samples;Min_cycle;Max_cycle;Signal;HPM_P1;HPM_P2
2021/12/29 00:00:39;;;;;;;8.53;1.77;;;5.10;99.90;5.30;92652.00;;;;6213838;23;20168;-80
2021/12/29 00:03:07;;;;;;;6.40;1.60;;;5.10;99.90;5.20;92715.00;;;;6189189;23;20199;-83
2021/12/29 00:05:34;;;;;;;7.63;1.50;;;5.20;99.90;5.10;92720.00;;;;6214197;23;20172;-81
2021/12/29 00:08:03;;;;;;;11.37;1.63;;;5.20;99.90;5.20;92734.00;;;;6189064;23;20175;-83
2021/12/29 00:10:30;;;;;;;6.53;1.20;;;5.10;99.90;5.10;92712.00;;;;6189315;23;20572;-81
2021/12/29 00:12:57;;;;;;;9.87;1.83;;;5.20;99.90;5.20;92714.00;;;;6214182;23;20172;-81
2021/12/29 00:15:27;;;;;;;4.77;1.00;;;5.20;99.90;5.10;92696.00;;;;6189159;23;20168;-79
2021/12/29 00:17:57;;;;;;;5.40;1.20;;;5.20;99.90;5.10;92709.00;;;;6188962;23;20188;-79
2021/12/29 00:20:29;;;;;;;5.63;1.40;;;5.20;99.90;5.10;92639.00;;;;6214251;23;20205;-78
2021/12/29 00:23:03;;;;;;;5.07;1.10;;;5.20;99.90;5.20;92713.00;;;;6214672;23;20233;-82
2021/12/29 00:25:31;;;;;;;5.63;1.20;;;5.10;99.90;5.10;92758.00;;;;6213500;23;20172;-84
2021/12/29 00:27:59;;;;;;;7.10;1.33;;;5.20;99.90;5.20;92613.00;;;;6187916;23;20607;-86
2021/12/29 00:30:28;;;;;;;5.37;1.20;;;5.20;99.90;5.20;92698.00;;;;6213848;23;20611;-82
2021/12/29 00:32:57;;;;;;;4.63;1.10;;;5.20;99.90;5.10;92703.00;;;;6213381;23;20221;-81
2021/12/29 00:35:24;;;;;;;3.13;0.97;;;5.20;99.90;5.20;92772.00;;;;6213890;23;20266;-80
2021/12/29 00:37:51;;;;;;;3.77;1.00;;;5.20;99.90;5.20;92752.00;;;;6210952;23;20215;-79
2021/12/29 00:40:18;;;;;;;5.07;1.07;;;5.20;99.90;5.20;92726.00;;;;6188934;23;20475;-84
2021/12/29 00:42:45;;;;;;;5.27;1.00;;;5.20;99.90;5.30;92692.00;;;;6213988;23;20519;-83
2021/12/29 00:45:13;;;;;;;3.13;1.00;;;5.20;99.90;4.90;92689.00;;;;6214402;23;20521;-85
2021/12/29 00:47:41;;;;;;;3.90;1.20;;;5.20;99.90;5.20;92749.00;;;;6214451;23;20168;-84
2021/12/29 00:50:13;;;;;;;6.93;1.13;;;5.20;99.90;5.20;92759.00;;;;6214054;23;20734;-82
2021/12/29 00:52:44;;;;;;;5.10;1.20;;;5.10;99.90;5.30;92762.00;;;;6214360;23;20243;-87
2021/12/29 00:55:15;;;;;;;6.70;1.53;;;5.20;99.90;5.20;92789.00;;;;6189782;23;20171;-80
2021/12/29 00:57:43;;;;;;;2.10;0.90;;;5.20;99.90;5.00;92792.00;;;;6215765;23;20504;-79
2021/12/29 01:00:18;;;;;;;6.77;1.20;;;5.20;99.90;5.30;92695.00;;;;6215898;23;20172;-88
2021/12/29 01:02:47;;;;;;;3.47;0.93;;;5.20;99.90;5.20;92810.00;;;;6216725;23;20168;-84
2021/12/29 01:05:16;;;;;;;2.70;0.70;;;5.20;99.90;5.20;92762.00;;;;6191565;23;20186;-80
2021/12/29 01:07:44;;;;;;;4.57;0.70;;;5.20;99.90;5.30;92821.00;;;;6191489;23;20539;-80
2021/12/29 01:10:14;;;;;;;2.03;0.70;;;5.20;99.90;5.30;92809.00;;;;6191449;23;20635;-84
2021/12/29 01:12:52;;;;;;;3.53;0.90;;;5.20;99.90;5.20;92810.00;;;;6216324;23;20176;-87
2021/12/29 01:15:30;;;;;;;3.07;0.80;;;5.20;99.90;5.20;92804.00;;;;6216208;23;20214;-89
2021/12/29 01:18:04;;;;;;;3.20;0.80;;;5.20;99.90;5.10;92830.00;;;;6215133;23;20209;-80
2021/12/29 01:20:33;;;;;;;0.20;0.20;;;5.20;99.90;5.20;92858.00;;;;6215836;23;20164;-85
2021/12/29 01:23:01;;;;;;;0.83;0.50;;;5.20;99.90;5.20;92870.00;;;;6190808;23;20222;-83
2021/12/29 01:25:29;;;;;;;2.33;0.60;;;5.20;99.90;5.30;92808.00;;;;6190437;23;20174;-78
2021/12/29 01:27:56;;;;;;;1.17;0.47;;;5.20;99.90;5.30;92864.00;;;;6215434;23;20631;-80
2021/12/29 01:30:24;;;;;;;1.00;0.50;;;5.20;99.90;5.30;92813.00;;;;6215743;23;20168;-87
2021/12/29 01:32:52;;;;;;;2.10;0.30;;;5.20;99.90;5.20;92869.00;;;;6190804;23;20171;-82
2021/12/29 01:35:19;;;;;;;2.73;0.70;;;5.20;99.90;5.40;92830.00;;;;6215453;23;20504;-88
2021/12/29 01:37:46;;;;;;;1.07;0.70;;;5.20;99.90;5.30;92820.00;;;;6215991;23;20199;-82
2021/12/29 01:40:17;;;;;;;4.40;1.20;;;5.20;99.90;5.10;92859.00;;;;6190936;23;20168;-80
2021/12/29 01:42:45;;;;;;;3.17;0.80;;;5.10;99.90;5.20;92903.00;;;;6190073;23;20984;-87
2021/12/29 01:45:13;;;;;;;6.33;1.13;;;5.10;99.90;5.10;92879.00;;;;6215414;23;20190;-85
2021/12/29 01:47:41;;;;;;;2.33;0.90;;;5.00;99.90;5.20;92773.00;;;;6190343;23;20199;-87
2021/12/29 01:50:10;;;;;;;3.30;0.73;;;5.00;99.90;5.00;92768.00;;;;6240055;23;20255;-84
2021/12/29 01:52:40;;;;;;;2.17;1.00;;;5.00;99.90;5.10;92842.00;;;;6190462;23;20176;-83
2021/12/29 01:55:13;;;;;;;2.43;0.80;;;5.00;99.90;4.90;92861.00;;;;6190417;23;20180;-85
2021/12/29 01:57:42;;;;;;;1.87;0.73;;;5.00;99.90;5.10;92906.00;;;;6215156;23;20261;-85
2021/12/29 02:00:17;;;;;;;2.27;0.83;;;5.00;99.90;5.00;92843.00;;;;6215487;23;20168;-85
2021/12/29 02:02:46;;;;;;;1.70;0.73;;;5.00;99.90;5.00;92851.00;;;;6190891;23;20645;-86
2021/12/29 02:05:13;;;;;;;2.20;1.10;;;4.90;99.90;4.90;92895.00;;;;6215580;23;20547;-86
2021/12/29 02:07:41;;;;;;;1.53;0.90;;;4.90;99.90;5.00;92922.00;;;;6215143;23;20226;-85
2021/12/29 02:10:11;;;;;;;2.10;1.10;;;4.90;99.90;5.00;92922.00;;;;6215601;23;20167;-84
2021/12/29 02:12:39;;;;;;;1.03;0.80;;;4.90;99.90;5.10;92915.00;;;;6191002;23;20167;-85
2021/12/29 02:15:08;;;;;;;6.00;1.57;;;4.90;99.90;5.00;92905.00;;;;6215495;23;20168;-80
2021/12/29 02:17:36;;;;;;;5.03;1.27;;;4.90;99.90;5.00;92833.00;;;;6215143;23;20191;-83
2021/12/29 02:20:11;;;;;;;3.23;1.00;;;5.00;99.90;5.00;92815.00;;;;6215394;23;20215;-84
2021/12/29 02:22:45;;;;;;;1.57;0.70;;;5.00;99.90;5.00;92889.00;;;;6215505;23;20186;-82
2021/12/29 02:27:52;;;;;;;0.50;0.50;;;5.00;99.90;5.20;92912.00;;;;6215793;23;20250;-91
2021/12/29 02:30:24;;;;;;;3.03;0.67;;;5.00;99.90;5.20;92953.00;;;;6192725;23;20175;-89
2021/12/29 02:33:00;;;;;;;1.00;0.60;;;5.00;99.90;5.20;92930.00;;;;6215668;23;20198;-81
2021/12/29 02:35:27;;;;;;;1.20;0.77;;;5.00;99.90;5.20;92900.00;;;;6215697;23;20225;-80
2021/12/29 02:37:55;;;;;;;2.90;0.90;;;5.00;99.90;5.20;92962.00;;;;6215454;23;20242;-82
2021/12/29 02:40:22;;;;;;;1.10;0.37;;;5.00;99.90;5.10;92876.00;;;;6190654;23;20501;-83
2021/12/29 02:42:49;;;;;;;0.97;0.40;;;5.10;99.90;5.20;92919.00;;;;6190292;23;20572;-81
2021/12/29 02:45:21;;;;;;;0.77;0.47;;;5.10;99.90;5.20;92903.00;;;;6216327;23;20179;-88
2021/12/29 02:47:49;;;;;;;1.07;0.50;;;5.10;99.90;5.20;92957.00;;;;6215723;23;20164;-87
2021/12/29 02:50:18;;;;;;;3.27;0.50;;;5.10;99.90;4.90;92882.00;;;;6215098;23;20557;-89
2021/12/29 02:52:47;;;;;;;1.33;0.57;;;5.10;99.90;5.30;92950.00;;;;6215312;23;20164;-87
2021/12/29 02:55:15;;;;;;;2.07;0.60;;;5.10;99.90;5.00;92865.00;;;;6190636;23;20183;-85
2021/12/29 02:57:45;;;;;;;0.63;0.47;;;5.10;99.90;5.20;92896.00;;;;6214905;23;20192;-84
2021/12/29 03:00:15;;;;;;;1.90;0.33;;;5.00;99.90;5.10;92978.00;;;;6188722;23;20168;-88
2021/12/29 03:02:44;;;;;;;0.83;0.40;;;5.10;99.90;5.10;92933.00;;;;6215443;23;20160;-88
2021/12/29 03:05:12;;;;;;;1.63;0.60;;;5.10;99.90;5.10;92945.00;;;;6215212;23;20164;-84
2021/12/29 03:07:39;;;;;;;1.07;0.30;;;5.10;99.90;5.30;92784.00;;;;6215069;23;20167;-86
2021/12/29 03:10:06;;;;;;;0.90;0.37;;;5.10;99.90;5.20;92837.00;;;;6215416;23;20175;-88
2021/12/29 03:12:35;;;;;;;0.30;0.20;;;5.10;99.90;5.20;92916.00;;;;6215042;23;20218;-86
2021/12/29 03:15:03;;;;;;;0.97;0.23;;;5.10;99.90;5.30;92935.00;;;;6190153;23;20234;-85
2021/12/29 03:17:30;;;;;;;0.60;0.33;;;5.10;99.90;5.30;92844.00;;;;6214754;23;20203;-85
2021/12/29 03:19:57;;;;;;;0.30;0.30;;;5.10;99.90;5.20;92922.00;;;;6214896;23;20226;-84
2021/12/29 03:22:24;;;;;;;0.53;0.30;;;5.10;99.90;5.30;92925.00;;;;6215226;23;20164;-84
2021/12/29 03:24:51;;;;;;;0.20;0.20;;;5.10;99.90;5.30;92972.00;;;;6190024;23;20218;-86
2021/12/29 03:27:19;;;;;;;0.87;0.40;;;5.10;99.90;5.30;92936.00;;;;6215097;23;20207;-87
2021/12/29 03:29:46;;;;;;;0.47;0.20;;;5.10;99.90;5.20;92900.00;;;;6215121;23;20172;-86
2021/12/29 03:32:21;;;;;;;1.80;0.50;;;5.10;99.90;5.10;92968.00;;;;6189761;23;20218;-87
2021/12/29 03:34:48;;;;;;;1.03;0.40;;;5.20;99.90;5.20;92749.00;;;;6240738;23;20669;-87
2021/12/29 03:37:15;;;;;;;0.97;0.47;;;5.20;1.00;5.10;92987.00;;;;6214790;23;20188;-89
2021/12/29 03:39:42;;;;;;;1.33;0.40;;;5.20;1.00;5.30;92906.00;;;;6214794;23;20157;-83
2021/12/29 03:42:09;;;;;;;0.87;0.30;;;5.20;1.00;5.00;92916.00;;;;6214447;23;20215;-84
2021/12/29 03:44:39;;;;;;;1.70;0.70;;;5.20;1.00;5.20;92963.00;;;;6214572;23;20167;-83
2021/12/29 03:47:07;;;;;;;1.20;0.60;;;5.20;1.00;5.20;92899.00;;;;6214457;23;20168;-83
2021/12/29 03:49:34;;;;;;;1.90;0.70;;;5.20;1.00;5.30;92923.00;;;;6214715;23;20163;-84
2021/12/29 03:52:02;;;;;;;1.43;0.70;;;5.20;1.00;5.10;92925.00;;;;6212955;23;20160;-82
2021/12/29 03:54:30;;;;;;;3.60;0.70;;;5.20;1.00;5.10;92905.00;;;;6189495;23;20164;-81
2021/12/29 03:57:00;;;;;;;1.70;0.37;;;5.20;1.00;5.30;92973.00;;;;6214339;23;20163;-84
2021/12/29 03:59:29;;;;;;;0.57;0.40;;;5.20;1.00;5.20;92943.00;;;;6214852;23;20226;-84
2021/12/29 04:01:56;;;;;;;3.80;0.60;;;5.20;1.00;5.40;92971.00;;;;6188084;23;20611;-85
2021/12/29 04:04:23;;;;;;;3.10;0.60;;;5.20;1.40;5.30;92918.00;;;;6214470;23;20170;-86
2021/12/29 04:06:50;;;;;;;0.70;0.30;;;5.20;1.00;5.40;92913.00;;;;6214551;23;20611;-85
2021/12/29 04:09:18;;;;;;;1.57;0.40;;;5.20;1.00;5.40;92980.00;;;;6214591;23;20167;-85
2021/12/29 04:11:50;;;;;;;0.40;0.23;;;5.20;1.00;5.40;92997.00;;;;6214621;23;20179;-85
2021/12/29 04:14:20;;;;;;;1.00;0.43;;;5.20;1.00;5.40;92898.00;;;;6190122;23;20611;-88
2021/12/29 04:16:48;;;;;;;1.23;0.47;;;5.20;1.00;5.40;92964.00;;;;6214919;23;20183;-85
2021/12/29 04:19:17;;;;;;;0.77;0.60;;;5.20;1.00;5.30;92928.00;;;;6214390;23;20238;-88
2021/12/29 04:21:47;;;;;;;1.73;0.60;;;5.20;1.00;5.30;92866.00;;;;6215742;23;20686;-81
2021/12/29 04:24:15;;;;;;;2.40;1.00;;;5.20;1.00;5.20;92934.00;;;;6214687;23;20210;-88
2021/12/29 04:26:42;;;;;;;1.20;0.63;;;5.20;1.00;5.30;92984.00;;;;6215032;23;20163;-83
2021/12/29 04:29:13;;;;;;;5.67;1.13;;;5.20;1.00;5.30;92914.00;;;;6190120;23;20282;-87
2021/12/29 04:31:41;;;;;;;2.63;0.60;;;5.20;1.00;5.20;93022.00;;;;6216787;23;20167;-82
2021/12/29 04:34:09;;;;;;;1.13;0.53;;;5.20;1.00;5.00;92897.00;;;;6216750;23;20229;-85
2021/12/29 04:36:36;;;;;;;4.03;0.80;;;5.20;1.00;5.30;93027.00;;;;6217649;23;20164;-90
2021/12/29 04:39:06;;;;;;;2.87;0.50;;;5.20;1.00;5.40;93002.00;;;;6216701;23;20188;-90
2021/12/29 04:41:34;;;;;;;1.77;0.80;;;5.20;1.00;5.30;93002.00;;;;6191437;23;20620;-84
2021/12/29 04:44:01;;;;;;;6.83;1.03;;;5.20;1.00;5.10;93038.00;;;;6216829;23;20536;-87
2021/12/29 04:46:36;;;;;;;6.03;1.10;;;5.20;1.00;5.40;92991.00;;;;6216152;23;20234;-86
2021/12/29 04:49:08;;;;;;;3.00;1.10;;;5.20;99.90;5.40;92983.00;;;;6217075;23;20167;-89
2021/12/29 04:51:43;;;;;;;2.27;0.97;;;5.20;99.90;5.40;93023.00;;;;6192240;23;20160;-83
2021/12/29 04:54:10;;;;;;;3.77;1.27;;;5.20;99.90;5.30;92935.00;;;;6191997;23;20254;-87
2021/12/29 04:56:37;;;;;;;3.60;0.80;;;5.20;99.90;5.30;92886.00;;;;6216635;23;20182;-89
2021/12/29 04:59:04;;;;;;;3.90;1.60;;;5.20;99.90;5.30;93022.00;;;;6215008;23;20701;-86
2021/12/29 05:01:32;;;;;;;6.90;1.47;;;5.30;99.90;5.30;92969.00;;;;6191426;23;20167;-86
2021/12/29 05:04:00;;;;;;;9.10;1.67;;;5.30;99.90;5.30;93063.00;;;;6191086;23;20172;-85
2021/12/29 05:09:12;;;;;;;6.43;1.97;;;5.30;99.90;5.40;93008.00;;;;6215704;23;20702;-85
2021/12/29 05:11:39;;;;;;;5.57;1.47;;;5.20;99.90;5.30;92946.00;;;;6215832;23;20511;-86
2021/12/29 05:14:07;;;;;;;4.13;1.30;;;5.20;99.90;5.20;93076.00;;;;6191106;23;20221;-84
2021/12/29 05:16:33;;;;;;;7.70;1.40;;;5.20;99.90;5.30;93030.00;;;;6215845;23;20172;-85
2021/12/29 05:19:00;;;;;;;5.43;1.30;;;5.20;99.90;5.30;93007.00;;;;6216069;23;20553;-80
2021/12/29 05:21:28;;;;;;;7.53;1.47;;;5.20;99.90;5.40;93043.00;;;;6190690;23;20202;-83
2021/12/29 05:23:55;;;;;;;7.57;1.30;;;5.20;99.90;5.30;93036.00;;;;6214540;23;20532;-83
2021/12/29 05:26:22;;;;;;;3.90;1.10;;;5.20;99.90;5.30;93085.00;;;;6214469;23;20206;-82
2021/12/29 05:28:50;;;;;;;3.67;1.27;;;5.20;99.90;5.40;92957.00;;;;6190761;23;20202;-81
2021/12/29 05:31:17;;;;;;;3.50;0.70;;;5.20;99.90;5.40;93067.00;;;;6190524;23;20606;-82
2021/12/29 05:33:45;;;;;;;2.67;0.70;;;5.20;99.90;5.30;93064.00;;;;6190622;23;20207;-82
2021/12/29 05:36:12;;;;;;;2.27;1.03;;;5.20;99.90;5.30;93062.00;;;;6190270;23;20215;-83
2021/12/29 05:38:39;;;;;;;1.90;0.60;;;5.20;99.90;5.30;93103.00;;;;6215582;23;20195;-84
2021/12/29 05:41:06;;;;;;;3.60;1.03;;;5.30;99.90;5.30;93043.00;;;;6214815;23;20172;-79
2021/12/29 05:43:33;;;;;;;2.17;0.80;;;5.20;99.90;5.40;93058.00;;;;6190710;23;20171;-81
2021/12/29 05:46:01;;;;;;;2.73;1.20;;;5.20;99.90;5.10;93026.00;;;;6216234;23;20171;-86
2021/12/29 05:48:28;;;;;;;1.60;0.70;;;5.20;99.90;5.20;92983.00;;;;6216093;23;20160;-87
2021/12/29 05:50:55;;;;;;;1.50;0.50;;;5.20;99.90;5.30;93049.00;;;;6190667;23;20175;-84
2021/12/29 05:53:23;;;;;;;0.60;0.50;;;5.20;99.90;5.10;93080.00;;;;6240734;23;20175;-85
2021/12/29 05:55:50;;;;;;;4.17;0.70;;;5.20;99.90;5.20;93047.00;;;;6214862;23;20172;-84
2021/12/29 05:58:17;;;;;;;3.20;0.83;;;5.20;99.90;5.30;93064.00;;;;6190793;23;20184;-83
2021/12/29 06:00:44;;;;;;;0.83;0.47;;;5.20;99.90;5.10;93049.00;;;;6189688;23;20164;-81
2021/12/29 06:03:12;;;;;;;2.57;1.10;;;5.10;99.90;5.40;93074.00;;;;6215784;23;20250;-79
2021/12/29 06:05:39;;;;;;;2.40;0.60;;;5.10;99.90;5.30;93130.00;;;;6190532;23;20172;-81
2021/12/29 06:08:07;;;;;;;3.30;1.17;;;5.10;99.90;5.30;93077.00;;;;6215708;23;20210;-80
2021/12/29 06:10:34;;;;;;;4.57;0.90;;;5.10;99.90;5.20;93120.00;;;;6190352;23;20168;-83
2021/12/29 06:13:02;;;;;;;4.13;0.90;;;5.10;99.90;5.10;93132.00;;;;6190224;23;20168;-84
2021/12/29 06:15:29;;;;;;;1.83;0.90;;;5.10;99.90;5.20;93113.00;;;;6214846;23;20172;-84
2021/12/29 06:17:56;;;;;;;2.83;0.50;;;5.10;99.90;5.10;92990.00;;;;6213700;23;20192;-85
2021/12/29 06:20:23;;;;;;;3.03;1.00;;;5.10;99.90;5.00;92932.00;;;;6215031;23;20164;-83
2021/12/29 06:22:51;;;;;;;2.10;0.90;;;5.20;99.90;5.20;93073.00;;;;6214247;23;20175;-82
2021/12/29 06:25:20;;;;;;;2.77;0.90;;;5.20;99.90;4.90;93151.00;;;;6189411;23;20164;-85
2021/12/29 06:27:47;;;;;;;3.00;1.20;;;5.20;99.90;5.10;93126.00;;;;6214879;23;20666;-85
2021/12/29 06:30:16;;;;;;;3.50;0.70;;;5.20;99.90;5.20;93142.00;;;;6215422;23;20534;-84
2021/12/29 06:32:45;;;;;;;4.93;1.00;;;5.20;99.90;5.20;93123.00;;;;6216297;23;20171;-80
2021/12/29 06:35:14;;;;;;;2.30;0.70;;;5.20;99.90;5.20;93153.00;;;;6190576;23;20164;-88
2021/12/29 06:37:43;;;;;;;3.80;1.00;;;5.20;99.90;5.30;93171.00;;;;6214550;23;20246;-86
2021/12/29 06:40:13;;;;;;;2.83;1.13;;;5.20;99.90;5.40;93123.00;;;;6215445;23;20218;-86
2021/12/29 06:42:41;;;;;;;3.50;0.70;;;5.20;99.90;5.30;93177.00;;;;6215614;23;20234;-86
2021/12/29 06:45:12;;;;;;;1.30;0.40;;;5.20;99.90;5.20;93173.00;;;;6216096;23;20199;-87
2021/12/29 06:47:42;;;;;;;3.00;0.53;;;5.20;99.90;5.10;93130.00;;;;6190087;23;20176;-85
2021/12/29 06:50:10;;;;;;;1.50;0.50;;;5.20;99.90;5.30;93133.00;;;;6215542;23;20229;-87
2021/12/29 06:52:37;;;;;;;2.10;0.33;;;5.20;99.90;5.30;93176.00;;;;6215404;23;20520;-88
2021/12/29 06:55:06;;;;;;;3.50;0.70;;;5.20;99.90;5.40;93170.00;;;;6190681;23;20174;-86
2021/12/29 06:57:34;;;;;;;1.63;0.47;;;5.20;99.90;5.10;93130.00;;;;6216866;23;20170;-87
2021/12/29 07:00:05;;;;;;;1.40;0.40;;;5.20;99.90;5.40;93129.00;;;;6191352;23;20188;-89
2021/12/29 07:02:32;;;;;;;2.20;0.60;;;5.20;99.90;5.50;93031.00;;;;6191456;23;20164;-87
2021/12/29 07:05:01;;;;;;;1.03;0.60;;;5.20;99.90;5.50;93094.00;;;;6216127;23;20172;-85
2021/12/29 07:07:28;;;;;;;0.50;0.40;;;5.20;99.90;5.20;93115.00;;;;6215745;23;20172;-88
2021/12/29 07:09:55;;;;;;;1.53;0.50;;;5.20;99.90;5.50;93175.00;;;;6216262;23;20171;-87
2021/12/29 07:12:22;;;;;;;2.67;0.70;;;5.20;99.90;5.70;93161.00;;;;6191625;23;20179;-85
2021/12/29 07:14:49;;;;;;;5.43;0.90;;;5.20;99.90;5.50;93182.00;;;;6216957;23;20168;-85
2021/12/29 07:17:17;;;;;;;2.00;0.80;;;5.20;99.90;5.30;93226.00;;;;6216017;23;20596;-86
2021/12/29 07:19:45;;;;;;;3.83;0.80;;;5.20;99.90;5.40;93161.00;;;;6190850;23;20191;-87
2021/12/29 07:22:12;;;;;;;1.90;0.83;;;5.20;99.90;5.60;93144.00;;;;6215466;23;20164;-85
2021/12/29 07:24:39;;;;;;;4.03;1.07;;;5.20;99.90;5.60;93216.00;;;;6214422;23;20183;-84
2021/12/29 07:27:06;;;;;;;3.47;0.80;;;5.20;99.90;5.50;93095.00;;;;6213916;23;20168;-84
2021/12/29 07:29:33;;;;;;;1.60;0.90;;;5.10;99.90;5.40;93194.00;;;;6189539;23;20167;-84
2021/12/29 07:32:02;;;;;;;4.93;1.10;;;5.20;99.90;5.60;93250.00;;;;6214391;23;20160;-83
2021/12/29 07:34:30;;;;;;;7.23;1.07;;;5.20;99.90;5.30;93249.00;;;;6214422;23;20244;-86
2021/12/29 07:36:57;;;;;;;3.17;0.90;;;5.20;99.90;5.30;93190.00;;;;6214730;23;20500;-84
2021/12/29 07:39:25;;;;;;;2.53;0.77;;;5.20;99.90;5.40;93269.00;;;;6214802;23;20681;-84
2021/12/29 07:41:53;;;;;;;2.27;1.17;;;5.20;99.90;5.30;93251.00;;;;6189770;23;20191;-82
2021/12/29 07:44:22;;;;;;;4.47;1.43;;;5.20;99.90;5.30;93253.00;;;;6214984;23;20222;-81
2021/12/29 07:46:53;;;;;;;3.67;1.40;;;5.10;99.90;5.10;93271.00;;;;6215238;23;20176;-87
2021/12/29 07:49:22;;;;;;;3.10;1.30;;;5.10;99.90;5.10;93275.00;;;;6189773;23;20784;-86
2021/12/29 07:51:51;;;;;;;4.40;1.10;;;5.10;99.90;5.10;93214.00;;;;6214387;23;20195;-83
2021/12/29 07:54:21;;;;;;;4.87;1.10;;;5.10;99.90;5.10;93245.00;;;;6214890;23;20222;-85
2021/12/29 07:56:48;;;;;;;5.27;1.20;;;5.10;99.90;5.00;93284.00;;;;6213874;23;20214;-83
2021/12/29 08:09:47;;;;;;;2.87;1.10;;;5.10;99.90;5.20;93305.00;;;;5027078;27;2614297;-88
2021/12/29 08:12:17;;;;;;;3.63;1.13;;;5.00;99.90;5.00;93086.00;;;;5075313;28;20217;-86
2021/12/29 08:14:53;;;;;;;3.73;1.30;;;5.00;99.90;5.10;93152.00;;;;5089604;28;20703;-86
2021/12/29 08:17:22;;;;;;;4.87;1.33;;;5.00;99.90;5.10;93181.00;;;;5076374;28;20217;-87
2021/12/29 08:19:50;;;;;;;5.87;1.30;;;5.00;99.90;5.40;93316.00;;;;5083233;28;20209;-85
2021/12/29 08:22:18;;;;;;;4.30;1.20;;;5.00;99.90;5.10;93259.00;;;;5075428;28;20217;-87
2021/12/29 08:24:48;;;;;;;5.63;1.27;;;5.10;99.90;5.20;93233.00;;;;5059145;28;20213;-87
2021/12/29 08:27:27;;;;;;;3.90;1.13;;;5.10;99.90;5.10;93324.00;;;;5076205;28;20801;-87
2021/12/29 08:29:55;;;;;;;3.13;1.30;;;5.10;99.90;5.50;93031.00;;;;5073673;28;20696;-84
2021/12/29 08:32:22;;;;;;;5.23;1.20;;;5.10;99.90;5.40;93258.00;;;;5082658;28;20970;-87
2021/12/29 08:34:58;;;;;;;6.40;1.33;;;5.10;99.90;5.30;93352.00;;;;5073166;28;20206;-87
2021/12/29 08:37:26;;;;;;;6.83;2.10;;;5.10;99.90;5.30;93209.00;;;;5074887;28;20700;-86
2021/12/29 08:39:55;;;;;;;5.63;1.17;;;5.20;99.90;5.50;93165.00;;;;5075521;28;20182;-86
2021/12/29 08:42:33;;;;;;;2.47;1.20;;;5.20;99.90;5.30;93328.00;;;;5073849;28;20214;-88
2021/12/29 08:45:15;;;;;;;5.33;2.63;;;5.30;99.90;5.00;93251.00;;;;5074388;28;21151;-88
2021/12/29 08:47:47;;;;;;;3.17;1.23;;;5.30;99.90;5.40;93204.00;;;;5090920;28;20213;-88
2021/12/29 08:50:33;;;;;;;4.10;1.30;;;5.40;99.90;5.40;93212.00;;;;5074582;28;20285;-87
2021/12/29 08:53:09;;;;;;;4.00;1.53;;;5.40;99.90;5.60;93285.00;;;;5090515;28;20235;-86
2021/12/29 08:55:44;;;;;;;5.70;3.00;;;5.40;84.30;5.50;93292.00;;;;5071161;28;20186;-88
2021/12/29 08:58:11;;;;;;;18.13;12.03;;;5.50;68.60;5.50;93244.00;;;;5076802;28;20190;-88
2021/12/29 09:00:51;;;;;;;5.77;2.77;;;5.50;57.00;5.50;93284.00;;;;5068526;28;20217;-88
2021/12/29 09:03:23;;;;;;;11.13;5.33;;;5.60;81.10;5.50;93300.00;;;;5078067;28;20936;-88
2021/12/29 09:05:51;;;;;;;16.67;11.13;;;5.60;94.60;5.50;93313.00;;;;5066335;28;20182;-88
2021/12/29 09:08:19;;;;;;;5.80;2.70;;;5.70;50.90;5.50;93268.00;;;;5058225;28;20325;-87
2021/12/29 09:10:46;;;;;;;4.20;1.10;;;5.70;1.00;5.70;93227.00;;;;5057171;28;20613;-87
2021/12/29 09:13:14;;;;;;;3.93;1.27;;;5.70;1.00;5.60;93287.00;;;;5060115;28;20210;-85
2021/12/29 09:15:42;;;;;;;5.23;1.33;;;5.80;1.00;5.70;93309.00;;;;5079088;28;20193;-87
2021/12/29 09:18:10;;;;;;;11.80;4.63;;;5.80;1.00;5.70;93294.00;;;;5063280;28;20194;-87
2021/12/29 09:20:44;;;;;;;2.53;1.20;;;5.90;1.00;5.70;93305.00;;;;5051787;28;20191;-87
2021/12/29 09:23:16;;;;;;;3.43;1.40;;;5.90;1.00;5.10;93070.00;;;;5060268;28;20185;-87
2021/12/29 09:25:48;;;;;;;16.80;7.93;;;6.00;1.00;5.70;93197.00;;;;5032060;28;20271;-87
2021/12/29 09:28:33;;;;;;;5.30;1.97;;;6.00;1.00;5.70;93035.00;;;;5049397;28;20264;-87
2021/12/29 09:31:04;;;;;;;5.70;2.17;;;6.10;1.00;5.00;93311.00;;;;5059533;28;20187;-87
2021/12/29 09:33:31;;;;;;;3.03;0.70;;;6.10;1.00;5.80;93229.00;;;;5062271;28;20195;-85
2021/12/29 09:36:01;;;;;;;11.97;6.23;;;6.10;1.00;5.90;93232.00;;;;5044514;28;20190;-85
2021/12/29 09:38:32;;;;;;;5.03;1.40;;;6.10;1.00;5.90;93329.00;;;;5076551;28;20195;-84
2021/12/29 09:40:59;;;;;;;23.20;12.93;;;6.20;1.00;6.00;93245.00;;;;5063139;28;20765;-85
2021/12/29 09:43:26;;;;;;;10.17;5.20;;;6.20;1.00;5.90;93203.00;;;;5048285;28;20304;-86
2021/12/29 09:45:54;;;;;;;3.30;1.33;;;6.20;1.00;5.80;93331.00;;;;5069366;28;20191;-85
2021/12/29 09:48:22;;;;;;;4.33;1.87;;;6.20;99.90;5.80;93307.00;;;;5051433;28;20585;-86
2021/12/29 09:50:50;;;;;;;5.83;2.93;;;6.20;99.90;5.90;93325.00;;;;5068211;28;20326;-85
2021/12/29 09:53:20;;;;;;;2.40;0.60;;;6.20;99.90;5.80;93339.00;;;;5060097;28;20614;-86
2021/12/29 09:55:47;;;;;;;2.27;1.20;;;6.20;99.90;6.00;93335.00;;;;5059965;28;20556;-85
2021/12/29 09:58:18;;;;;;;4.90;3.37;;;6.20;99.90;6.00;93381.00;;;;5068343;28;20237;-85
2021/12/29 10:00:56;;;;;;;2.73;0.93;;;6.30;99.90;6.00;93374.00;;;;5069814;28;20205;-85
2021/12/29 10:03:28;;;;;;;4.53;2.00;;;6.40;99.90;6.00;93319.00;;;;5063977;28;20186;-85
2021/12/29 10:06:01;;;;;;;2.67;1.90;;;6.30;99.90;5.70;93266.00;;;;5061096;28;20205;-85
2021/12/29 10:08:43;;;;;;;1.30;0.70;;;6.40;99.90;5.90;93336.00;;;;5047610;28;20226;-85
2021/12/29 10:11:28;;;;;;;5.87;2.60;;;6.40;99.90;6.10;93299.00;;;;5058902;28;20191;-88
2021/12/29 10:13:56;;;;;;;9.43;6.23;;;6.40;99.90;6.10;93293.00;;;;5051968;28;20190;-85
2021/12/29 10:16:29;;;;;;;3.30;2.00;;;6.50;99.90;6.20;93039.00;;;;5063630;28;20209;-83
2021/12/29 10:19:10;;;;;;;4.37;2.60;;;6.50;99.90;6.30;93342.00;;;;5050475;28;20314;-86
2021/12/29 10:21:47;;;;;;;11.97;6.10;;;6.60;99.90;6.40;93332.00;;;;5047046;28;20268;-83
2021/12/29 10:24:18;;;;;;;2.33;1.27;;;6.50;99.90;6.40;93302.00;;;;5052311;28;20191;-85
2021/12/29 10:26:49;;;;;;;2.27;1.50;;;6.60;99.90;6.30;93309.00;;;;5051732;28;20199;-87
2021/12/29 10:29:20;;;;;;;3.67;1.20;;;6.60;99.90;6.30;93314.00;;;;5067418;28;20214;-86
2021/12/29 10:32:04;;;;;;;5.17;0.87;;;6.70;99.90;5.90;93279.00;;;;5059653;28;20202;-83
2021/12/29 10:34:32;;;;;;;1.13;0.50;;;6.70;99.90;5.50;93263.00;;;;5028740;28;20681;-83
2021/12/29 10:37:08;;;;;;;4.93;0.97;;;6.60;99.90;6.30;93245.00;;;;5045687;28;20205;-83
2021/12/29 10:39:39;;;;;;;13.77;6.70;;;6.60;99.90;6.30;93304.00;;;;5059464;28;20236;-83
2021/12/29 10:42:17;;;;;;;1.90;0.70;;;6.60;99.90;6.30;93194.00;;;;5044109;28;20214;-83
2021/12/29 10:44:55;;;;;;;40.43;23.13;;;6.60;99.90;6.30;93315.00;;;;5059874;28;20195;-83
2021/12/29 10:47:37;;;;;;;10.87;3.97;;;6.60;99.90;6.40;93315.00;;;;5044713;28;20199;-83
2021/12/29 10:50:12;;;;;;;5.73;3.77;;;6.60;99.90;6.40;93316.00;;;;5061183;28;20214;-83
2021/12/29 10:52:53;;;;;;;2.23;1.83;;;6.60;99.90;6.40;93270.00;;;;5057173;28;20222;-83
2021/12/29 10:55:36;;;;;;;4.03;3.60;;;6.60;99.90;6.30;93227.00;;;;5047835;28;20191;-83
2021/12/29 10:58:09;;;;;;;2.63;1.90;;;6.60;99.90;6.40;93263.00;;;;5046099;28;20190;-86
2021/12/29 11:00:55;;;;;;;3.30;1.67;;;6.50;99.90;6.50;93296.00;;;;5043348;28;20201;-86
2021/12/29 11:03:26;;;;;;;1.50;0.63;;;6.60;99.90;6.40;93297.00;;;;5069836;28;20206;-86
2021/12/29 11:05:59;;;;;;;3.37;1.10;;;6.60;99.90;6.20;93327.00;;;;5061445;28;20222;-84
2021/12/29 11:08:44;;;;;;;2.83;0.90;;;6.60;99.90;6.40;93249.00;;;;5068347;28;20569;-85
2021/12/29 11:11:12;;;;;;;3.60;1.37;;;6.60;99.90;6.30;93308.00;;;;5050892;28;20197;-84
2021/12/29 11:13:41;;;;;;;6.27;2.27;;;6.50;99.90;6.10;93277.00;;;;5058078;28;20201;-83
2021/12/29 11:16:09;;;;;;;6.93;3.10;;;6.40;99.90;6.20;93136.00;;;;5044799;28;20197;-83
2021/12/29 11:18:50;;;;;;;3.63;1.03;;;6.50;99.90;6.20;93266.00;;;;5059377;28;20203;-83
2021/12/29 11:21:31;;;;;;;3.40;1.10;;;6.50;99.90;6.30;93263.00;;;;5048561;28;20299;-84
2021/12/29 11:24:11;;;;;;;3.47;0.60;;;6.50;99.90;6.20;93314.00;;;;5063076;28;20189;-83
2021/12/29 11:26:39;;;;;;;7.93;4.67;;;6.50;99.90;6.30;93172.00;;;;5058217;28;20202;-85
2021/12/29 11:29:14;;;;;;;8.30;3.27;;;6.50;99.90;6.30;93281.00;;;;5058318;28;20215;-86
2021/12/29 11:31:56;;;;;;;7.67;3.40;;;6.50;99.90;6.30;93258.00;;;;5067010;28;20274;-85
2021/12/29 11:34:29;;;;;;;7.73;1.70;;;6.50;99.90;6.50;93306.00;;;;5046917;28;20193;-83
2021/12/29 11:37:14;;;;;;;5.60;1.67;;;6.50;99.90;6.20;93258.00;;;;5076664;28;20190;-84